Time;durP1;ratioP1;P1;durP2;ratioP2;P2;SDS_P1;SDS_P2;PMS_P1;PMS_P2;Temp;Humidity;BMP_temperature;BMP_pressure;BME280_temperature;BME280_humidity;BME280_pressure;Samples;Min_cycle;Max_cycle;Signal;HPM_P1;HPM_P2
2023/07/21 00:02:18;;;;;;;4.63;1.60;;;;;;;23.61;45.37;101210.06;5026768;28;20087;-67
2023/07/21 00:04:43;;;;;;;2.70;1.30;;;;;;;23.60;45.37;101208.38;5041762;28;20026;-67
2023/07/21 00:07:09;;;;;;;4.38;1.70;;;;;;;23.60;45.48;101211.03;5041310;28;20021;-67
2023/07/21 00:09:34;;;;;;;3.35;1.83;;;;;;;23.59;44.91;101210.22;5026808;28;20033;-68
2023/07/21 00:12:00;;;;;;;2.65;1.52;;;;;;;23.59;45.18;101196.06;5026615;28;20033;-64
2023/07/21 00:14:26;;;;;;;3.85;1.77;;;;;;;23.59;44.79;101204.03;5026389;28;20037;-65
2023/07/21 00:16:53;;;;;;;3.38;1.55;;;;;;;23.57;45.30;101198.88;5026639;28;20124;-65
2023/07/21 00:19:19;;;;;;;2.65;1.38;;;;;;;23.57;45.24;101195.38;5026473;28;20056;-65
2023/07/21 00:21:44;;;;;;;4.05;1.73;;;;;;;23.56;44.94;101191.91;5026371;28;20041;-65
2023/07/21 00:24:11;;;;;;;2.95;1.60;;;;;;;23.57;45.17;101195.38;5026375;28;20048;-67
2023/07/21 00:26:36;;;;;;;3.95;1.88;;;;;;;23.55;44.80;101192.88;5026379;28;20099;-65
2023/07/21 00:29:02;;;;;;;3.38;1.50;;;;;;;23.55;44.93;101193.69;5026562;28;20422;-64
2023/07/21 00:31:28;;;;;;;2.88;1.70;;;;;;;23.56;44.79;101191.91;5026203;28;20026;-65
2023/07/21 00:33:54;;;;;;;2.90;1.70;;;;;;;23.57;44.93;101187.41;5026536;28;20352;-65
2023/07/21 00:36:20;;;;;;;3.53;1.70;;;;;;;23.54;45.21;101184.06;5026459;28;20036;-65
2023/07/21 00:38:47;;;;;;;3.63;1.70;;;;;;;23.53;45.12;101185.03;5026384;28;20112;-67
2023/07/21 00:41:13;;;;;;;2.97;1.70;;;;;;;23.50;45.16;101182.69;5026315;28;20047;-64
2023/07/21 00:43:38;;;;;;;2.50;1.30;;;;;;;23.52;45.07;101180.72;5026106;28;20025;-63
2023/07/21 00:46:04;;;;;;;3.77;1.70;;;;;;;23.52;45.11;101185.19;5026140;28;20370;-67
2023/07/21 00:48:30;;;;;;;4.38;1.80;;;;;;;23.51;45.16;101179.06;5026411;28;20250;-65
2023/07/21 00:50:56;;;;;;;3.45;1.80;;;;;;;23.51;45.22;101178.19;5026106;28;20025;-66
2023/07/21 00:53:22;;;;;;;3.65;1.85;;;;;;;23.52;45.05;101177.22;5026213;28;20142;-67
2023/07/21 00:55:50;;;;;;;3.50;1.80;;;;;;;23.50;44.89;101172.06;5026444;28;20096;-64
2023/07/21 00:58:17;;;;;;;3.55;1.77;;;;;;;23.50;45.06;101171.22;5026036;28;20070;-67
2023/07/21 01:00:43;;;;;;;3.00;1.50;;;;;;;23.51;44.73;101178.19;5026386;28;20144;-66
2023/07/21 01:03:11;;;;;;;3.40;1.85;;;;;;;23.50;44.90;101166.72;5025920;28;20167;-64
2023/07/21 01:05:43;;;;;;;3.65;1.70;;;;;;;23.48;45.16;101160.75;5026163;28;20026;-65
2023/07/21 01:08:11;;;;;;;3.20;1.90;;;;;;;23.50;44.93;101165.91;5025983;28;20122;-66
2023/07/21 01:10:38;;;;;;;3.53;1.90;;;;;;;23.47;44.98;101153.72;5026184;28;20021;-63
2023/07/21 01:13:05;;;;;;;3.20;1.40;;;;;;;23.48;45.03;101159.88;5026145;28;20044;-64
2023/07/21 01:15:32;;;;;;;3.67;1.90;;;;;;;23.47;45.12;101153.72;5025919;28;20026;-64
2023/07/21 01:17:59;;;;;;;2.97;1.70;;;;;;;23.47;44.94;101152.91;5025884;28;20045;-67
2023/07/21 01:20:27;;;;;;;3.45;1.83;;;;;;;23.48;44.67;101154.56;5025869;28;20490;-66
2023/07/21 01:22:57;;;;;;;3.35;1.77;;;;;;;23.47;44.87;101152.91;5026038;28;20029;-66
2023/07/21 01:25:24;;;;;;;3.05;1.63;;;;;;;23.47;44.57;101150.25;5025664;28;20061;-65
2023/07/21 01:27:52;;;;;;;3.50;1.73;;;;;;;23.44;44.92;101146.06;5025844;28;20037;-63
2023/07/21 01:30:20;;;;;;;4.05;1.70;;;;;;;23.44;44.64;101137.25;5025718;28;20025;-65
2023/07/21 01:32:48;;;;;;;3.38;1.88;;;;;;;23.46;44.85;101145.91;5026510;28;20057;-65
2023/07/21 01:35:17;;;;;;;4.47;1.88;;;;;;;23.44;44.59;101148.72;5029415;28;20040;-64
2023/07/21 01:37:45;;;;;;;4.47;1.75;;;;;;;23.44;44.87;101139.91;5029524;28;20029;-65
2023/07/21 01:40:13;;;;;;;4.32;1.77;;;;;;;23.43;44.60;101140.88;5029265;28;20026;-65
2023/07/21 01:42:41;;;;;;;3.00;1.60;;;;;;;23.43;44.73;101138.22;5029155;28;20138;-65
2023/07/21 01:45:08;;;;;;;3.22;1.73;;;;;;;23.43;44.34;101133.78;5028913;28;20041;-65
2023/07/21 01:47:34;;;;;;;3.67;1.90;;;;;;;23.43;44.84;101133.78;5029222;28;20040;-66
2023/07/21 01:50:00;;;;;;;4.53;1.88;;;;;;;23.40;44.92;101131.41;5027879;28;20038;-67
2023/07/21 01:52:31;;;;;;;4.07;1.50;;;;;;;23.41;44.56;101125.09;5028972;28;21450;-63
2023/07/21 01:55:06;;;;;;;3.45;1.67;;;;;;;23.41;44.39;101126.91;5029363;28;20053;-67
2023/07/21 01:57:37;;;;;;;2.67;1.60;;;;;;;23.41;44.42;101127.75;5028698;28;20021;-65
2023/07/21 02:00:09;;;;;;;2.58;1.45;;;;;;;23.41;44.75;101124.25;5029247;28;20082;-67
2023/07/21 02:02:36;;;;;;;2.67;1.73;;;;;;;23.42;44.69;101124.09;5028993;28;20124;-65
2023/07/21 02:05:01;;;;;;;3.42;1.80;;;;;;;23.41;44.81;101122.44;5028770;28;20160;-64
2023/07/21 02:07:26;;;;;;;3.00;1.60;;;;;;;23.39;44.72;101113.78;5028268;28;20104;-64
2023/07/21 02:09:52;;;;;;;3.08;1.67;;;;;;;23.35;44.25;101110.59;5029111;28;20121;-65
2023/07/21 02:12:18;;;;;;;3.38;1.83;;;;;;;23.40;44.38;101117.25;5028539;28;20112;-66
2023/07/21 02:14:43;;;;;;;3.15;1.70;;;;;;;23.39;44.77;101119.09;5028814;28;20033;-66
2023/07/21 02:17:10;;;;;;;2.97;1.70;;;;;;;23.38;44.27;101112.09;5027885;28;20029;-63
2023/07/21 02:19:35;;;;;;;3.85;1.92;;;;;;;23.38;44.70;101113.94;5026497;28;20033;-66
2023/07/21 02:22:00;;;;;;;3.40;1.77;;;;;;;23.38;44.43;101116.59;5028155;28;20650;-65
2023/07/21 02:24:27;;;;;;;3.90;1.95;;;;;;;23.36;44.08;101117.56;5042363;28;20418;-67
2023/07/21 02:26:53;;;;;;;2.95;1.70;;;;;;;23.37;44.31;101113.09;5028075;28;20087;-68
2023/07/21 02:29:19;;;;;;;3.70;1.80;;;;;;;23.35;44.21;101110.59;5028132;28;20025;-65
2023/07/21 02:31:45;;;;;;;3.03;1.77;;;;;;;23.35;44.50;101107.94;5043650;28;20433;-66
2023/07/21 02:34:11;;;;;;;3.33;1.85;;;;;;;23.35;44.32;101113.25;5028271;28;20071;-66
2023/07/21 02:36:36;;;;;;;2.88;1.70;;;;;;;23.35;44.27;101113.25;5028186;28;20520;-67
2023/07/21 02:39:02;;;;;;;3.65;1.90;;;;;;;23.34;44.20;101102.78;5028489;28;20037;-66
2023/07/21 02:41:27;;;;;;;3.42;1.70;;;;;;;23.35;44.72;101109.72;5027743;28;20550;-68
2023/07/21 02:43:53;;;;;;;3.92;1.60;;;;;;;23.33;44.56;101103.75;5027575;28;20029;-66
2023/07/21 02:46:18;;;;;;;3.15;1.70;;;;;;;23.34;44.41;101105.44;5028218;28;20041;-65
2023/07/21 02:48:46;;;;;;;3.85;1.80;;;;;;;23.32;44.35;101102.91;5028022;28;20425;-66
2023/07/21 02:51:11;;;;;;;3.83;1.95;;;;;;;23.31;44.30;101093.25;5028066;28;20021;-66
2023/07/21 02:53:37;;;;;;;3.50;1.92;;;;;;;23.33;44.17;101098.44;5027782;28;20080;-64
2023/07/21 02:56:03;;;;;;;3.15;1.60;;;;;;;23.30;44.13;101093.41;5026547;28;20431;-64
2023/07/21 02:58:29;;;;;;;3.10;1.80;;;;;;;23.31;44.12;101101.25;5027236;28;20069;-66
2023/07/21 03:00:55;;;;;;;2.88;1.60;;;;;;;23.30;43.98;101101.38;5027794;28;20060;-64
2023/07/21 03:03:24;;;;;;;3.00;1.65;;;;;;;23.30;44.32;101102.22;5027624;28;20029;-64
2023/07/21 03:05:49;;;;;;;3.50;1.70;;;;;;;23.31;44.29;101103.06;5027647;28;20107;-65
2023/07/21 03:08:15;;;;;;;2.65;1.50;;;;;;;23.30;44.04;101104.88;5027937;28;20065;-63
2023/07/21 03:10:42;;;;;;;3.58;1.70;;;;;;;23.28;43.84;101100.72;5026025;28;20375;-62
2023/07/21 03:13:09;;;;;;;2.75;1.50;;;;;;;23.27;43.79;101094.53;5027497;28;20025;-64
2023/07/21 03:15:34;;;;;;;3.08;1.60;;;;;;;23.27;44.16;101097.19;5027522;28;20040;-66
2023/07/21 03:18:00;;;;;;;3.95;1.70;;;;;;;23.27;44.01;101099.03;5027441;28;20108;-66
2023/07/21 03:20:25;;;;;;;4.32;2.00;;;;;;;23.26;44.14;101100.03;5027532;28;20594;-66
2023/07/21 03:22:50;;;;;;;3.30;1.73;;;;;;;23.26;43.74;101100.03;5027554;28;20029;-64
2023/07/21 03:25:16;;;;;;;3.22;1.83;;;;;;;23.22;44.23;101096.00;5027061;28;20152;-63
2023/07/21 03:27:41;;;;;;;3.55;1.85;;;;;;;23.25;43.77;101090.38;5027151;28;20044;-66
2023/07/21 03:30:09;;;;;;;3.13;1.75;;;;;;;23.26;43.66;101097.38;5027290;28;20072;-63
2023/07/21 03:32:35;;;;;;;3.50;1.80;;;;;;;23.24;43.93;101094.88;5042160;28;20076;-65
2023/07/21 03:35:04;;;;;;;2.97;1.70;;;;;;;23.23;43.56;101095.84;5027144;28;20037;-64
2023/07/21 03:37:30;;;;;;;3.20;1.95;;;;;;;23.24;43.69;101094.88;5026844;28;20033;-66
2023/07/21 03:39:56;;;;;;;2.97;1.70;;;;;;;23.25;43.90;101103.69;5027196;28;20028;-63
2023/07/21 03:42:23;;;;;;;3.15;1.80;;;;;;;23.22;43.65;101094.16;5026862;28;20041;-65
2023/07/21 03:44:49;;;;;;;3.92;1.83;;;;;;;23.22;43.85;101096.00;5027181;28;20032;-64
2023/07/21 03:47:19;;;;;;;3.15;1.70;;;;;;;23.22;43.61;101099.50;5026865;28;20128;-65
2023/07/21 03:49:46;;;;;;;3.58;2.10;;;;;;;23.23;43.89;101100.34;5026811;28;20022;-67
2023/07/21 03:52:11;;;;;;;3.25;1.90;;;;;;;23.21;43.88;101102.28;5026806;28;20482;-66
2023/07/21 03:54:37;;;;;;;2.60;1.60;;;;;;;23.21;43.61;101091.66;5026419;28;20080;-66
2023/07/21 03:57:02;;;;;;;3.13;1.75;;;;;;;23.20;43.45;101092.66;5026737;28;20508;-64
2023/07/21 03:59:29;;;;;;;3.20;1.60;;;;;;;23.20;43.65;101098.00;5026970;28;20036;-66
2023/07/21 04:01:55;;;;;;;3.40;1.90;;;;;;;23.19;43.56;101097.13;5026501;28;20034;-65
2023/07/21 04:04:20;;;;;;;2.78;1.73;;;;;;;23.18;43.76;101088.31;5026907;28;20032;-63
2023/07/21 04:06:46;;;;;;;3.65;1.80;;;;;;;23.18;43.36;101088.31;5026003;28;20079;-65
2023/07/21 04:09:14;;;;;;;3.42;1.83;;;;;;;23.19;43.71;101086.50;5026686;28;20017;-64
2023/07/21 04:11:40;;;;;;;3.35;1.92;;;;;;;23.17;43.32;101084.00;5026456;28;20474;-64
2023/07/21 04:14:05;;;;;;;3.05;1.63;;;;;;;23.17;43.52;101084.00;5026333;28;20057;-65
2023/07/21 04:16:32;;;;;;;4.55;1.83;;;;;;;23.17;43.67;101084.00;5026764;28;20565;-64
2023/07/21 04:18:58;;;;;;;4.47;2.33;;;;;;;23.17;43.38;101080.50;5026476;28;20025;-65
2023/07/21 04:21:23;;;;;;;3.42;1.77;;;;;;;23.17;43.65;101078.66;5026457;28;20052;-64
2023/07/21 04:23:48;;;;;;;3.53;1.90;;;;;;;23.16;43.59;101071.72;5026324;28;20101;-66
2023/07/21 04:26:14;;;;;;;3.63;2.00;;;;;;;23.16;43.53;101066.38;5026428;28;20283;-65
2023/07/21 04:28:41;;;;;;;3.78;2.22;;;;;;;23.15;43.36;101070.03;5026286;28;20036;-64
2023/07/21 04:31:08;;;;;;;5.25;2.20;;;;;;;23.15;43.45;101067.38;5026581;28;20124;-64
2023/07/21 04:33:35;;;;;;;3.80;2.20;;;;;;;23.16;43.84;101065.53;5025906;28;20025;-65
2023/07/21 04:36:02;;;;;;;4.05;1.77;;;;;;;23.15;43.41;101071.84;5025703;28;20028;-68
2023/07/21 04:38:28;;;;;;;3.10;1.70;;;;;;;23.13;43.34;101066.69;5026124;28;20063;-65
2023/07/21 04:40:54;;;;;;;4.00;2.35;;;;;;;23.15;43.40;101071.84;5026590;28;20470;-65
2023/07/21 04:43:19;;;;;;;4.68;1.90;;;;;;;23.14;43.56;101073.66;5025762;28;20450;-64
2023/07/21 04:45:45;;;;;;;4.07;2.17;;;;;;;23.14;43.75;101070.19;5026560;28;20029;-66
2023/07/21 04:48:10;;;;;;;3.53;1.95;;;;;;;23.15;43.85;101069.19;5026430;28;20034;-66
2023/07/21 04:50:36;;;;;;;3.97;1.90;;;;;;;23.12;43.86;101059.69;5026074;28;20041;-66
2023/07/21 04:53:04;;;;;;;3.88;2.03;;;;;;;23.13;43.72;101066.69;5026213;28;20029;-67
2023/07/21 04:55:29;;;;;;;3.45;2.05;;;;;;;23.13;43.73;101069.34;5026178;28;20039;-67
2023/07/21 04:57:54;;;;;;;4.13;2.15;;;;;;;23.14;43.79;101071.00;5026150;28;20025;-64
2023/07/21 05:00:21;;;;;;;3.58;2.00;;;;;;;23.13;43.49;101060.53;5025945;28;20029;-63
2023/07/21 05:02:47;;;;;;;3.55;2.15;;;;;;;23.14;43.58;101071.00;5025392;28;20484;-63
2023/07/21 05:05:12;;;;;;;3.88;1.98;;;;;;;23.13;43.78;101064.03;5025374;28;20033;-63
2023/07/21 05:07:38;;;;;;;3.33;1.90;;;;;;;23.11;43.97;101058.00;5026496;28;20497;-62
2023/07/21 05:10:04;;;;;;;4.13;2.10;;;;;;;23.13;43.94;101064.03;5029648;28;20037;-66
2023/07/21 05:12:29;;;;;;;3.78;2.00;;;;;;;23.13;43.65;101060.53;5027913;28;20041;-65
2023/07/21 05:14:54;;;;;;;3.63;2.00;;;;;;;23.13;43.50;101058.72;5029316;28;20025;-65
2023/07/21 05:17:20;;;;;;;3.60;2.10;;;;;;;23.13;44.05;101056.06;5029602;28;20044;-63
2023/07/21 05:19:45;;;;;;;3.83;2.10;;;;;;;23.13;43.96;101058.72;5029698;28;20125;-65
2023/07/21 05:22:13;;;;;;;4.15;2.20;;;;;;;23.13;44.11;101056.06;5030306;28;20454;-64
2023/07/21 05:24:39;;;;;;;3.13;1.90;;;;;;;23.13;43.95;101056.06;5029862;28;20120;-64
2023/07/21 05:27:06;;;;;;;4.30;2.20;;;;;;;23.12;43.82;101059.69;5028288;28;20128;-66
2023/07/21 05:29:33;;;;;;;3.97;2.22;;;;;;;23.14;43.92;101062.19;5028489;28;20037;-67
2023/07/21 05:31:58;;;;;;;3.67;1.90;;;;;;;23.13;44.02;101063.19;5043962;28;20072;-66
2023/07/21 05:34:23;;;;;;;3.40;1.90;;;;;;;23.13;44.08;101071.16;5029072;28;20061;-63
2023/07/21 05:36:49;;;;;;;4.85;2.42;;;;;;;23.12;43.94;101065.00;5029432;28;20351;-65
2023/07/21 05:39:15;;;;;;;5.22;2.22;;;;;;;23.13;43.87;101066.69;5044292;28;20116;-65
2023/07/21 05:41:40;;;;;;;3.92;2.20;;;;;;;23.12;44.14;101067.66;5028978;28;20135;-64
2023/07/21 05:44:06;;;;;;;4.47;2.10;;;;;;;23.13;44.37;101065.84;5028749;28;20021;-64
2023/07/21 05:46:31;;;;;;;4.20;2.30;;;;;;;23.13;44.22;101063.19;5028931;28;20041;-64
2023/07/21 05:48:57;;;;;;;3.72;2.42;;;;;;;23.12;44.21;101065.00;5029032;28;20083;-64
2023/07/21 05:51:22;;;;;;;3.83;2.15;;;;;;;23.13;44.37;101060.53;5028684;28;20072;-66
2023/07/21 05:53:48;;;;;;;4.03;2.03;;;;;;;23.11;44.64;101065.97;5029003;28;20041;-67
2023/07/21 05:56:13;;;;;;;4.57;2.35;;;;;;;23.12;44.22;101062.34;5028793;28;20655;-65
2023/07/21 05:58:41;;;;;;;5.43;2.20;;;;;;;23.13;44.50;101077.31;5028208;28;20408;-64
2023/07/21 06:01:06;;;;;;;4.00;2.22;;;;;;;23.14;44.54;101072.84;5028986;28;20343;-64
2023/07/21 06:03:32;;;;;;;3.80;2.22;;;;;;;23.14;44.72;101072.84;5028772;28;20045;-65
2023/07/21 06:05:57;;;;;;;4.40;2.20;;;;;;;23.15;44.63;101074.50;5028841;28;20029;-66
2023/07/21 06:08:24;;;;;;;4.05;2.00;;;;;;;23.15;44.64;101078.00;5028672;28;20159;-65
2023/07/21 06:10:51;;;;;;;4.38;2.20;;;;;;;23.13;44.88;101072.00;5028696;28;20457;-64
2023/07/21 06:13:17;;;;;;;4.10;2.30;;;;;;;23.12;44.57;101070.31;5028776;28;20065;-67
2023/07/21 06:15:43;;;;;;;4.18;2.22;;;;;;;23.11;44.59;101073.13;5026913;28;20087;-63
2023/07/21 06:18:08;;;;;;;3.80;2.20;;;;;;;23.14;44.43;101072.84;5028430;28;20466;-64
2023/07/21 06:20:34;;;;;;;3.87;2.30;;;;;;;23.14;44.95;101076.31;5029143;28;20398;-67
2023/07/21 06:23:00;;;;;;;4.07;2.20;;;;;;;23.14;44.60;101076.31;5028680;28;20277;-66
2023/07/21 06:25:26;;;;;;;3.78;2.38;;;;;;;23.16;44.36;101068.19;5042538;28;20485;-64
2023/07/21 06:27:52;;;;;;;4.88;2.42;;;;;;;23.18;44.42;101069.72;5027973;28;20041;-63
2023/07/21 06:30:17;;;;;;;4.25;2.20;;;;;;;23.17;44.73;101070.69;5028668;28;20080;-63
2023/07/21 06:32:42;;;;;;;3.33;1.92;;;;;;;23.16;44.70;101062.88;5028021;28;20099;-64
2023/07/21 06:35:09;;;;;;;4.25;2.13;;;;;;;23.15;44.92;101062.03;5027911;28;20017;-66
2023/07/21 06:37:37;;;;;;;3.78;1.90;;;;;;;23.15;45.15;101064.72;5026701;28;20021;-66
2023/07/21 06:40:05;;;;;;;5.88;2.00;;;;;;;23.13;45.17;101060.53;5027580;28;20048;-64
2023/07/21 06:42:30;;;;;;;4.05;1.88;;;;;;;23.11;45.32;101059.84;5027991;28;20025;-64
2023/07/21 06:44:56;;;;;;;4.85;1.80;;;;;;;23.13;45.54;101057.84;5026914;28;20044;-64
2023/07/21 06:47:21;;;;;;;3.60;2.00;;;;;;;23.17;45.25;101060.06;5027823;28;20033;-62
2023/07/21 06:49:46;;;;;;;4.15;1.98;;;;;;;23.16;45.25;101063.72;5042842;28;20444;-63
2023/07/21 06:52:12;;;;;;;3.95;2.20;;;;;;;23.18;45.72;101063.56;5027926;28;20115;-66
2023/07/21 06:54:38;;;;;;;5.43;1.80;;;;;;;23.19;45.97;101062.56;5027735;28;20417;-63
2023/07/21 06:57:05;;;;;;;3.88;1.80;;;;;;;23.19;45.44;101062.56;5027849;28;20044;-66
2023/07/21 06:59:30;;;;;;;3.33;2.00;;;;;;;23.20;45.93;101058.09;5042776;28;20072;-65
2023/07/21 07:01:57;;;;;;;3.92;1.73;;;;;;;23.20;45.92;101060.78;5027836;28;20029;-64
2023/07/21 07:04:22;;;;;;;3.47;1.90;;;;;;;23.21;45.78;101057.09;5027536;28;20025;-64
2023/07/21 07:06:47;;;;;;;4.88;1.90;;;;;;;23.20;45.65;101060.78;5027695;28;20128;-64
2023/07/21 07:09:14;;;;;;;4.78;2.05;;;;;;;23.20;45.88;101058.09;5027307;28;20034;-66
2023/07/21 07:11:39;;;;;;;4.85;2.00;;;;;;;23.18;46.24;101058.25;5027423;28;20033;-63
2023/07/21 07:14:05;;;;;;;3.85;1.83;;;;;;;23.19;46.26;101054.59;5027115;28;20032;-64
2023/07/21 07:16:30;;;;;;;4.32;2.55;;;;;;;23.20;46.51;101050.13;5027605;28;20120;-64
2023/07/21 07:18:56;;;;;;;3.65;1.90;;;;;;;23.20;46.51;101047.47;5027313;28;20033;-65
2023/07/21 07:21:21;;;;;;;3.42;1.85;;;;;;;23.22;46.38;101053.47;5027125;28;20501;-65
2023/07/21 07:23:46;;;;;;;4.43;2.20;;;;;;;23.20;46.59;101050.97;5027210;28;20424;-65
2023/07/21 07:26:12;;;;;;;4.30;2.25;;;;;;;23.22;46.39;101048.16;5026992;28;20140;-65
2023/07/21 07:28:38;;;;;;;4.13;2.30;;;;;;;23.24;46.43;101051.47;5027164;28;20032;-65
2023/07/21 07:31:04;;;;;;;5.35;2.10;;;;;;;23.23;46.85;101045.34;5026136;28;20546;-63
2023/07/21 07:33:31;;;;;;;3.88;1.95;;;;;;;23.22;46.57;101045.50;5027218;28;20025;-66
2023/07/21 07:35:57;;;;;;;4.75;2.50;;;;;;;23.23;46.92;101047.16;5027418;28;20040;-66
2023/07/21 07:38:27;;;;;;;4.03;2.40;;;;;;;23.25;46.82;101047.84;5026767;28;20128;-67
2023/07/21 07:40:53;;;;;;;5.90;2.15;;;;;;;23.27;46.98;101046.69;5026927;28;20068;-67
2023/07/21 07:43:19;;;;;;;3.90;1.92;;;;;;;23.30;47.05;101054.34;5024786;28;20509;-64
2023/07/21 07:45:45;;;;;;;4.03;2.10;;;;;;;23.36;47.24;101055.56;5024649;28;20036;-62
2023/07/21 07:48:10;;;;;;;6.22;2.28;;;;;;;23.38;46.90;101056.25;5026214;28;20060;-65
2023/07/21 07:50:39;;;;;;;4.43;2.45;;;;;;;23.42;46.74;101057.63;5025280;28;20051;-64
2023/07/21 07:53:08;;;;;;;4.43;2.60;;;;;;;23.45;46.71;101059.13;5026386;28;20386;-65
2023/07/21 07:55:41;;;;;;;4.35;2.13;;;;;;;23.44;46.65;101058.28;5024272;28;20052;-62
2023/07/21 07:58:08;;;;;;;4.80;2.50;;;;;;;23.47;46.69;101060.66;5026229;28;20086;-65
2023/07/21 08:00:38;;;;;;;4.40;2.00;;;;;;;23.49;46.48;101060.50;5025546;28;20509;-64
2023/07/21 08:03:09;;;;;;;4.32;2.28;;;;;;;23.51;46.81;101063.81;5025982;28;20033;-64
2023/07/21 08:05:36;;;;;;;5.38;2.40;;;;;;;23.52;46.46;101060.19;5026484;28;20025;-63
2023/07/21 08:08:03;;;;;;;5.13;2.30;;;;;;;23.53;46.68;101060.03;5024676;28;20049;-63
2023/07/21 08:10:29;;;;;;;4.70;2.30;;;;;;;23.53;46.76;101056.53;5041032;28;20057;-66
2023/07/21 08:12:55;;;;;;;4.45;2.10;;;;;;;23.54;46.62;101056.38;5024686;28;20041;-62
2023/07/21 08:15:21;;;;;;;5.10;2.35;;;;;;;23.55;46.30;101050.06;5026034;28;20079;-65
2023/07/21 08:17:46;;;;;;;4.15;2.22;;;;;;;23.57;46.42;101051.75;5026039;28;20032;-64
2023/07/21 08:20:12;;;;;;;4.50;2.45;;;;;;;23.59;46.48;101049.75;5025198;28;20037;-62
2023/07/21 08:22:37;;;;;;;4.43;2.30;;;;;;;23.61;45.77;101053.94;5049008;28;20029;-65
2023/07/21 08:25:05;;;;;;;4.50;2.07;;;;;;;23.62;46.46;101054.75;5025188;28;20442;-66
2023/07/21 08:27:30;;;;;;;6.30;2.45;;;;;;;23.64;45.94;101047.44;4138420;28;10001390;-65
2023/07/21 08:29:57;;;;;;;4.18;2.40;;;;;;;23.64;45.98;101042.13;4145337;28;10000395;-63
2023/07/21 08:32:22;;;;;;;4.10;2.05;;;;;;;23.65;45.79;101049.94;5034917;28;20029;-63
2023/07/21 08:34:47;;;;;;;4.28;2.00;;;;;;;23.67;45.75;101049.78;5008097;28;20537;-66
2023/07/21 08:37:13;;;;;;;4.47;2.25;;;;;;;23.65;46.13;101044.63;4996120;28;20480;-66
2023/07/21 08:39:38;;;;;;;6.10;2.30;;;;;;;23.68;45.78;101054.13;4985724;28;20054;-65
2023/07/21 08:42:08;;;;;;;5.47;2.00;;;;;;;23.66;46.06;101042.81;4998124;28;20061;-62
2023/07/21 08:44:35;;;;;;;8.38;2.22;;;;;;;23.68;45.86;101048.81;4999894;28;20267;-67
2023/07/21 08:47:11;;;;;;;3.91;1.93;;;;;;;23.64;46.27;101050.97;4481674;28;10001499;-67
2023/07/21 08:49:39;;;;;;;6.90;2.10;;;;;;;23.68;45.85;101044.31;5017017;28;20034;-68
2023/07/21 08:52:04;;;;;;;5.50;2.25;;;;;;;23.69;45.69;101046.00;5000067;28;20038;-63
2023/07/21 08:54:30;;;;;;;6.07;2.08;;;;;;;23.70;45.69;101058.31;5000071;28;20041;-63
2023/07/21 08:56:55;;;;;;;4.30;1.90;;;;;;;23.69;46.00;101051.31;4999758;28;20063;-66
2023/07/21 08:59:21;;;;;;;3.53;1.90;;;;;;;23.69;46.04;101063.81;4997202;28;20050;-66
2023/07/21 09:01:47;;;;;;;5.93;1.98;;;;;;;23.68;45.89;101056.78;5030828;28;21390;-64
2023/07/21 09:04:24;;;;;;;3.95;1.98;;;;;;;23.66;46.17;101048.16;4995218;28;20030;-66
2023/07/21 09:06:51;;;;;;;3.45;1.80;;;;;;;23.67;46.16;101058.63;4999178;28;20030;-65
2023/07/21 09:09:21;;;;;;;3.08;1.50;;;;;;;23.67;45.60;101061.28;4998429;28;20060;-66
2023/07/21 09:11:48;;;;;;;2.90;1.55;;;;;;;23.65;46.00;101062.44;4999801;28;20057;-63
2023/07/21 09:14:15;;;;;;;3.80;2.00;;;;;;;23.63;46.25;101056.44;5031300;28;20034;-66
2023/07/21 09:16:40;;;;;;;3.83;1.70;;;;;;;23.63;46.05;101048.47;4999816;28;20040;-64
2023/07/21 09:19:08;;;;;;;4.03;2.00;;;;;;;23.64;45.75;101058.94;4999802;28;20116;-64
2023/07/21 09:21:37;;;;;;;4.32;1.80;;;;;;;23.64;46.24;101052.75;4999147;28;20026;-63
2023/07/21 09:24:04;;;;;;;3.85;1.83;;;;;;;23.60;46.22;101046.94;4998814;28;20085;-65
2023/07/21 09:26:29;;;;;;;4.05;1.70;;;;;;;23.59;46.07;101049.75;5000119;28;20070;-63
2023/07/21 09:28:55;;;;;;;2.72;1.58;;;;;;;23.59;45.90;101041.78;5000232;28;20085;-64
2023/07/21 09:31:34;;;;;;;5.75;2.00;;;;;;;23.55;45.95;101039.41;4999794;28;20657;-66
2023/07/21 09:34:09;;;;;;;4.22;1.77;;;;;;;23.53;45.96;101036.09;4999366;28;20022;-63
2023/07/21 09:36:35;;;;;;;3.78;1.65;;;;;;;23.57;45.95;101039.25;4999607;28;20128;-65
2023/07/21 09:39:03;;;;;;;3.50;1.83;;;;;;;23.54;45.81;101037.78;4999784;28;20117;-65
2023/07/21 09:41:31;;;;;;;4.00;1.85;;;;;;;23.54;45.96;101028.94;4999984;28;20022;-65
2023/07/21 09:43:58;;;;;;;4.28;1.65;;;;;;;23.54;46.39;101023.59;4999523;28;20022;-65
2023/07/21 09:46:23;;;;;;;4.43;2.00;;;;;;;23.54;46.20;101020.94;4996803;28;20104;-63
2023/07/21 09:48:49;;;;;;;5.15;3.63;;;;;;;23.57;46.11;101017.97;4988656;28;20406;-64
2023/07/21 09:51:17;;;;;;;5.60;2.50;;;;;;;23.59;46.10;101010.69;4999310;28;20034;-64
2023/07/21 09:53:43;;;;;;;5.72;2.22;;;;;;;23.63;46.19;101016.53;4997782;28;20096;-64
2023/07/21 09:56:10;;;;;;;4.63;2.13;;;;;;;23.63;46.18;101019.19;4998514;28;20386;-63
2023/07/21 09:58:46;;;;;;;3.35;1.77;;;;;;;23.62;46.20;101022.84;4998253;28;20026;-63
2023/07/21 10:01:12;;;;;;;4.20;1.77;;;;;;;23.62;45.66;101021.00;4998759;28;20065;-65
2023/07/21 10:03:38;;;;;;;14.93;2.85;;;;;;;23.64;45.76;101020.84;4996659;28;20030;-63
2023/07/21 10:06:04;;;;;;;15.10;2.65;;;;;;;23.67;45.97;101020.53;5003935;28;20386;-62
2023/07/21 10:08:36;;;;;;;12.38;2.65;;;;;;;23.66;45.68;101026.88;4997422;28;20030;-63
2023/07/21 10:11:04;;;;;;;10.02;2.85;;;;;;;23.67;45.44;101016.06;4998191;28;20038;-66
2023/07/21 10:13:31;;;;;;;13.48;2.88;;;;;;;23.70;45.37;101026.41;4998275;28;20109;-67
2023/07/21 10:16:15;;;;;;;12.55;2.40;;;;;;;23.69;45.79;101029.22;4998322;28;20030;-65
2023/07/21 10:19:11;;;;;;;13.25;2.60;;;;;;;23.72;46.07;101028.91;4998750;28;20031;-62
2023/07/21 10:21:51;;;;;;;9.27;2.60;;;;;;;23.73;45.82;101030.56;4995213;28;20035;-66
2023/07/21 10:24:27;;;;;;;10.73;2.95;;;;;;;23.72;46.05;101032.38;4996754;28;20053;-63
2023/07/21 10:27:03;;;;;;;8.63;2.65;;;;;;;23.75;46.70;101041.91;4998706;28;20358;-62
2023/07/21 10:29:28;;;;;;;7.80;2.88;;;;;;;23.76;47.01;101038.22;4998798;28;20033;-64
2023/07/21 10:31:55;;;;;;;7.22;2.80;;;;;;;23.76;46.67;101034.72;4999220;28;20045;-64
2023/07/21 10:34:26;;;;;;;11.55;3.30;;;;;;;23.72;47.17;101048.34;4998842;28;20083;-64
2023/07/21 10:36:52;;;;;;;9.68;2.85;;;;;;;23.73;47.03;101055.34;4998804;28;20467;-65
2023/07/21 10:39:20;;;;;;;8.95;2.80;;;;;;;23.70;47.32;101071.63;4999049;28;20061;-64
2023/07/21 10:41:47;;;;;;;8.75;2.95;;;;;;;23.70;47.52;101086.72;4998563;28;20406;-63
2023/07/21 10:44:13;;;;;;;7.43;2.85;;;;;;;23.68;46.86;101062.13;4998575;28;20038;-64
2023/07/21 10:46:40;;;;;;;11.02;3.17;;;;;;;23.68;47.41;101062.13;4998738;28;20114;-63
2023/07/21 10:49:09;;;;;;;7.65;3.08;;;;;;;23.66;47.45;101058.78;4999129;28;20117;-65
2023/07/21 10:51:35;;;;;;;8.52;3.38;;;;;;;23.65;47.73;101060.59;4998827;28;20100;-63
2023/07/21 10:54:00;;;;;;;13.90;4.15;;;;;;;23.66;48.14;101064.09;4999038;28;20057;-64
2023/07/21 10:56:25;;;;;;;12.60;4.28;;;;;;;23.63;48.39;101067.91;4998174;28;20057;-62
2023/07/21 10:58:52;;;;;;;11.40;5.30;;;;;;;23.64;48.67;101076.72;4998268;28;20455;-63
2023/07/21 11:01:21;;;;;;;10.88;3.97;;;;;;;23.59;48.57;101073.69;4998223;28;20026;-66
2023/07/21 11:03:48;;;;;;;9.55;4.07;;;;;;;23.65;48.91;101076.56;4993171;28;20026;-61
2023/07/21 11:06:14;;;;;;;9.88;4.80;;;;;;;23.66;48.95;101080.06;4994630;28;20355;-65
2023/07/21 11:08:40;;;;;;;10.80;3.97;;;;;;;23.67;49.15;101073.75;4997376;28;20025;-62
2023/07/21 11:11:08;;;;;;;12.20;4.13;;;;;;;23.69;48.68;101083.25;4997100;28;20382;-64
2023/07/21 11:13:33;;;;;;;9.05;3.35;;;;;;;23.69;49.19;101082.44;4997605;28;20029;-66
2023/07/21 11:16:00;;;;;;;7.82;3.50;;;;;;;23.69;49.26;101085.09;4997163;28;20481;-65
2023/07/21 11:18:28;;;;;;;7.28;3.22;;;;;;;23.71;49.05;101093.75;4996343;28;20041;-68
2023/07/21 11:20:54;;;;;;;11.18;3.20;;;;;;;23.72;48.66;101096.25;4998273;28;20060;-64
2023/07/21 11:23:24;;;;;;;7.18;3.35;;;;;;;23.71;48.85;101099.06;4996086;28;20026;-65